sensor_id;sensor_type;location;lat;lon;timestamp;temperature;humidity
2497;DHT22;1259;48.306;14.374;2022-08-21T00:00:37;15.70;99.90
2497;DHT22;1259;48.306;14.374;2022-08-21T00:03:07;15.70;99.90
2497;DHT22;1259;48.306;14.374;2022-08-21T00:05:42;15.70;99.90
2497;DHT22;1259;48.306;14.374;2022-08-21T00:08:10;15.70;99.90
2497;DHT22;1259;48.306;14.374;2022-08-21T00:10:37;15.70;99.90
2497;DHT22;1259;48.306;14.374;2022-08-21T00:13:05;15.70;99.90
2497;DHT22;1259;48.306;14.374;2022-08-21T00:15:35;15.70;99.90
2497;DHT22;1259;48.306;14.374;2022-08-21T00:18:04;15.80;99.90
2497;DHT22;1259;48.306;14.374;2022-08-21T00:20:32;15.80;99.90
2497;DHT22;1259;48.306;14.374;2022-08-21T00:22:59;15.80;99.90
2497;DHT22;1259;48.306;14.374;2022-08-21T00:25:27;15.70;99.90
2497;DHT22;1259;48.306;14.374;2022-08-21T00:27:54;15.70;99.90
2497;DHT22;1259;48.306;14.374;2022-08-21T00:30:23;15.70;99.90
2497;DHT22;1259;48.306;14.374;2022-08-21T00:32:54;15.70;99.90
2497;DHT22;1259;48.306;14.374;2022-08-21T00:35:23;15.70;99.90
2497;DHT22;1259;48.306;14.374;2022-08-21T00:37:51;15.60;99.90
2497;DHT22;1259;48.306;14.374;2022-08-21T00:40:21;15.70;99.90
2497;DHT22;1259;48.306;14.374;2022-08-21T00:42:48;15.70;99.90
2497;DHT22;1259;48.306;14.374;2022-08-21T00:45:16;15.60;99.90
2497;DHT22;1259;48.306;14.374;2022-08-21T00:47:43;15.70;99.90
2497;DHT22;1259;48.306;14.374;2022-08-21T00:50:11;15.60;99.90
2497;DHT22;1259;48.306;14.374;2022-08-21T00:52:39;15.60;99.90
2497;DHT22;1259;48.306;14.374;2022-08-21T00:55:08;15.50;99.90
2497;DHT22;1259;48.306;14.374;2022-08-21T00:57:40;15.50;99.90
2497;DHT22;1259;48.306;14.374;2022-08-21T01:00:13;15.50;99.90
2497;DHT22;1259;48.306;14.374;2022-08-21T01:02:40;15.50;99.90
2497;DHT22;1259;48.306;14.374;2022-08-21T01:05:07;15.50;99.90
2497;DHT22;1259;48.306;14.374;2022-08-21T01:07:36;15.50;99.90
2497;DHT22;1259;48.306;14.374;2022-08-21T01:10:05;15.40;99.90
2497;DHT22;1259;48.306;14.374;2022-08-21T01:12:33;15.40;99.90
2497;DHT22;1259;48.306;14.374;2022-08-21T01:15:02;15.50;99.90
2497;DHT22;1259;48.306;14.374;2022-08-21T01:17:30;15.50;99.90
2497;DHT22;1259;48.306;14.374;2022-08-21T01:19:58;15.40;99.90
2497;DHT22;1259;48.306;14.374;2022-08-21T01:22:26;15.40;99.90
2497;DHT22;1259;48.306;14.374;2022-08-21T01:24:53;15.40;99.90
2497;DHT22;1259;48.306;14.374;2022-08-21T01:27:20;15.40;99.90
2497;DHT22;1259;48.306;14.374;2022-08-21T01:29:53;15.40;99.90
2497;DHT22;1259;48.306;14.374;2022-08-21T01:32:22;15.40;99.90
2497;DHT22;1259;48.306;14.374;2022-08-21T01:34:51;15.40;99.90
2497;DHT22;1259;48.306;14.374;2022-08-21T01:37:19;15.40;99.90
2497;DHT22;1259;48.306;14.374;2022-08-21T01:39:48;15.40;99.90
2497;DHT22;1259;48.306;14.374;2022-08-21T01:42:14;15.40;99.90
2497;DHT22;1259;48.306;14.374;2022-08-21T01:44:42;15.40;99.90
2497;DHT22;1259;48.306;14.374;2022-08-21T01:47:12;15.40;99.90
2497;DHT22;1259;48.306;14.374;2022-08-21T01:49:40;15.40;99.90
2497;DHT22;1259;48.306;14.374;2022-08-21T01:52:07;15.30;99.90
2497;DHT22;1259;48.306;14.374;2022-08-21T01:54:35;15.40;99.90
2497;DHT22;1259;48.306;14.374;2022-08-21T01:57:04;15.30;99.90
2497;DHT22;1259;48.306;14.374;2022-08-21T01:59:31;15.40;99.90
2497;DHT22;1259;48.306;14.374;2022-08-21T02:01:58;15.30;99.90
2497;DHT22;1259;48.306;14.374;2022-08-21T02:04:26;15.40;99.90
2497;DHT22;1259;48.306;14.374;2022-08-21T02:06:53;15.40;99.90
2497;DHT22;1259;48.306;14.374;2022-08-21T02:09:20;15.40;99.90
2497;DHT22;1259;48.306;14.374;2022-08-21T02:11:48;15.30;99.90
2497;DHT22;1259;48.306;14.374;2022-08-21T02:14:17;15.40;99.90
2497;DHT22;1259;48.306;14.374;2022-08-21T02:16:45;15.30;99.90
2497;DHT22;1259;48.306;14.374;2022-08-21T02:19:14;15.30;99.90
2497;DHT22;1259;48.306;14.374;2022-08-21T02:21:41;15.30;99.90
2497;DHT22;1259;48.306;14.374;2022-08-21T02:24:09;15.30;99.90
2497;DHT22;1259;48.306;14.374;2022-08-21T02:26:36;15.30;99.90
2497;DHT22;1259;48.306;14.374;2022-08-21T02:29:04;15.30;99.90
2497;DHT22;1259;48.306;14.374;2022-08-21T02:31:33;15.40;99.90
2497;DHT22;1259;48.306;14.374;2022-08-21T02:33:59;15.40;99.90
2497;DHT22;1259;48.306;14.374;2022-08-21T02:36:27;15.40;99.90
2497;DHT22;1259;48.306;14.374;2022-08-21T02:38:54;15.40;99.90
2497;DHT22;1259;48.306;14.374;2022-08-21T02:41:22;15.40;99.90
2497;DHT22;1259;48.306;14.374;2022-08-21T02:43:49;15.50;99.90
2497;DHT22;1259;48.306;14.374;2022-08-21T02:46:18;15.40;99.90
2497;DHT22;1259;48.306;14.374;2022-08-21T02:48:47;15.50;99.90
2497;DHT22;1259;48.306;14.374;2022-08-21T02:51:17;15.50;99.90
2497;DHT22;1259;48.306;14.374;2022-08-21T02:53:46;15.50;99.90
2497;DHT22;1259;48.306;14.374;2022-08-21T02:56:16;15.50;99.90
2497;DHT22;1259;48.306;14.374;2022-08-21T02:58:45;15.60;99.90
2497;DHT22;1259;48.306;14.374;2022-08-21T03:01:13;15.60;99.90
2497;DHT22;1259;48.306;14.374;2022-08-21T03:03:43;15.60;99.90
2497;DHT22;1259;48.306;14.374;2022-08-21T03:06:15;15.50;99.90
2497;DHT22;1259;48.306;14.374;2022-08-21T03:08:42;15.50;99.90
2497;DHT22;1259;48.306;14.374;2022-08-21T03:11:11;15.50;99.90
2497;DHT22;1259;48.306;14.374;2022-08-21T03:13:38;15.60;99.90
2497;DHT22;1259;48.306;14.374;2022-08-21T03:16:06;15.60;99.90
2497;DHT22;1259;48.306;14.374;2022-08-21T03:18:34;15.60;99.90
2497;DHT22;1259;48.306;14.374;2022-08-21T03:21:01;15.60;99.90
2497;DHT22;1259;48.306;14.374;2022-08-21T03:23:30;15.60;99.90
2497;DHT22;1259;48.306;14.374;2022-08-21T03:25:57;15.60;99.90
2497;DHT22;1259;48.306;14.374;2022-08-21T03:28:24;15.60;99.90
2497;DHT22;1259;48.306;14.374;2022-08-21T03:30:52;15.60;99.90
2497;DHT22;1259;48.306;14.374;2022-08-21T03:33:20;15.60;99.90
2497;DHT22;1259;48.306;14.374;2022-08-21T03:35:52;15.60;99.90
2497;DHT22;1259;48.306;14.374;2022-08-21T03:38:20;15.60;99.90
2497;DHT22;1259;48.306;14.374;2022-08-21T03:40:48;15.60;99.90
2497;DHT22;1259;48.306;14.374;2022-08-21T03:43:15;15.60;99.90
2497;DHT22;1259;48.306;14.374;2022-08-21T03:45:42;15.60;99.90
2497;DHT22;1259;48.306;14.374;2022-08-21T03:48:09;15.60;99.90
2497;DHT22;1259;48.306;14.374;2022-08-21T03:50:39;15.60;99.90
2497;DHT22;1259;48.306;14.374;2022-08-21T03:53:06;15.60;99.90
2497;DHT22;1259;48.306;14.374;2022-08-21T03:55:33;15.60;99.90
2497;DHT22;1259;48.306;14.374;2022-08-21T03:58:02;15.60;99.90
2497;DHT22;1259;48.306;14.374;2022-08-21T04:00:29;15.60;99.90
2497;DHT22;1259;48.306;14.374;2022-08-21T04:02:56;15.60;99.90
2497;DHT22;1259;48.306;14.374;2022-08-21T04:05:23;15.60;99.90
2497;DHT22;1259;48.306;14.374;2022-08-21T04:07:57;15.60;99.90
2497;DHT22;1259;48.306;14.374;2022-08-21T04:10:25;15.60;99.90
2497;DHT22;1259;48.306;14.374;2022-08-21T04:12:53;15.60;99.90
2497;DHT22;1259;48.306;14.374;2022-08-21T04:15:24;15.60;99.90
2497;DHT22;1259;48.306;14.374;2022-08-21T04:17:51;15.60;99.90
2497;DHT22;1259;48.306;14.374;2022-08-21T04:20:19;15.60;99.90
2497;DHT22;1259;48.306;14.374;2022-08-21T04:22:47;15.60;99.90
2497;DHT22;1259;48.306;14.374;2022-08-21T04:25:16;15.60;99.90
2497;DHT22;1259;48.306;14.374;2022-08-21T04:27:45;15.60;99.90
2497;DHT22;1259;48.306;14.374;2022-08-21T04:30:12;15.60;99.90
2497;DHT22;1259;48.306;14.374;2022-08-21T04:32:44;15.60;99.90
2497;DHT22;1259;48.306;14.374;2022-08-21T04:35:13;15.60;99.90
2497;DHT22;1259;48.306;14.374;2022-08-21T04:37:40;15.60;99.90
2497;DHT22;1259;48.306;14.374;2022-08-21T04:40:08;15.60;99.90
2497;DHT22;1259;48.306;14.374;2022-08-21T04:42:41;15.60;99.90
2497;DHT22;1259;48.306;14.374;2022-08-21T04:45:13;15.60;99.90
2497;DHT22;1259;48.306;14.374;2022-08-21T04:47:40;15.60;99.90
2497;DHT22;1259;48.306;14.374;2022-08-21T04:50:09;15.60;99.90
2497;DHT22;1259;48.306;14.374;2022-08-21T04:52:36;15.60;99.90
2497;DHT22;1259;48.306;14.374;2022-08-21T04:55:04;15.60;99.90
2497;DHT22;1259;48.306;14.374;2022-08-21T04:57:32;15.60;99.90
2497;DHT22;1259;48.306;14.374;2022-08-21T04:59:58;15.60;99.90
2497;DHT22;1259;48.306;14.374;2022-08-21T05:02:27;15.60;99.90
2497;DHT22;1259;48.306;14.374;2022-08-21T05:04:54;15.70;99.90
2497;DHT22;1259;48.306;14.374;2022-08-21T05:07:26;15.70;99.90
2497;DHT22;1259;48.306;14.374;2022-08-21T05:09:55;15.70;99.90
2497;DHT22;1259;48.306;14.374;2022-08-21T05:12:23;15.70;99.90
2497;DHT22;1259;48.306;14.374;2022-08-21T05:14:50;15.80;99.90
2497;DHT22;1259;48.306;14.374;2022-08-21T05:17:17;15.80;99.90
2497;DHT22;1259;48.306;14.374;2022-08-21T05:19:43;15.80;99.90
2497;DHT22;1259;48.306;14.374;2022-08-21T05:22:10;15.80;99.90
2497;DHT22;1259;48.306;14.374;2022-08-21T05:24:39;15.80;99.90
2497;DHT22;1259;48.306;14.374;2022-08-21T05:27:06;15.80;99.90
2497;DHT22;1259;48.306;14.374;2022-08-21T05:29:32;15.80;99.90
2497;DHT22;1259;48.306;14.374;2022-08-21T05:31:59;15.90;99.90
2497;DHT22;1259;48.306;14.374;2022-08-21T05:34:26;15.90;99.90
2497;DHT22;1259;48.306;14.374;2022-08-21T05:36:53;15.80;99.90
2497;DHT22;1259;48.306;14.374;2022-08-21T05:39:20;15.90;99.90
2497;DHT22;1259;48.306;14.374;2022-08-21T05:41:48;15.80;99.90
2497;DHT22;1259;48.306;14.374;2022-08-21T05:44:15;15.90;99.90
2497;DHT22;1259;48.306;14.374;2022-08-21T05:46:42;15.80;99.90
2497;DHT22;1259;48.306;14.374;2022-08-21T05:49:10;15.90;99.90
2497;DHT22;1259;48.306;14.374;2022-08-21T05:51:39;15.90;99.90
2497;DHT22;1259;48.306;14.374;2022-08-21T05:54:06;15.90;99.90
2497;DHT22;1259;48.306;14.374;2022-08-21T05:56:33;15.90;99.90
2497;DHT22;1259;48.306;14.374;2022-08-21T05:59:01;15.90;99.90
2497;DHT22;1259;48.306;14.374;2022-08-21T06:01:29;15.90;99.90
2497;DHT22;1259;48.306;14.374;2022-08-21T06:03:55;15.90;99.90
2497;DHT22;1259;48.306;14.374;2022-08-21T06:06:22;15.90;99.90
2497;DHT22;1259;48.306;14.374;2022-08-21T06:08:49;15.90;99.90
2497;DHT22;1259;48.306;14.374;2022-08-21T06:11:18;16.00;99.90
2497;DHT22;1259;48.306;14.374;2022-08-21T06:13:45;16.00;99.90
2497;DHT22;1259;48.306;14.374;2022-08-21T06:16:15;16.00;99.90
2497;DHT22;1259;48.306;14.374;2022-08-21T06:18:43;16.00;99.90
2497;DHT22;1259;48.306;14.374;2022-08-21T06:21:10;16.00;99.90
2497;DHT22;1259;48.306;14.374;2022-08-21T06:23:38;16.00;99.90
2497;DHT22;1259;48.306;14.374;2022-08-21T06:26:07;16.10;99.90
2497;DHT22;1259;48.306;14.374;2022-08-21T06:28:34;16.00;99.90
2497;DHT22;1259;48.306;14.374;2022-08-21T06:31:10;16.00;99.90
2497;DHT22;1259;48.306;14.374;2022-08-21T06:33:39;16.10;99.90
2497;DHT22;1259;48.306;14.374;2022-08-21T06:36:06;16.10;99.90
2497;DHT22;1259;48.306;14.374;2022-08-21T06:38:33;16.10;99.90
2497;DHT22;1259;48.306;14.374;2022-08-21T06:41:00;16.10;99.90
2497;DHT22;1259;48.306;14.374;2022-08-21T06:43:27;16.10;99.90
2497;DHT22;1259;48.306;14.374;2022-08-21T06:45:54;16.10;99.90
2497;DHT22;1259;48.306;14.374;2022-08-21T06:48:22;16.00;99.90
2497;DHT22;1259;48.306;14.374;2022-08-21T06:50:50;16.00;99.90
2497;DHT22;1259;48.306;14.374;2022-08-21T06:53:18;16.00;99.90
2497;DHT22;1259;48.306;14.374;2022-08-21T06:55:46;16.00;99.90
2497;DHT22;1259;48.306;14.374;2022-08-21T06:58:14;16.10;99.90
2497;DHT22;1259;48.306;14.374;2022-08-21T07:00:44;16.10;99.90
2497;DHT22;1259;48.306;14.374;2022-08-21T07:03:17;16.10;99.90
2497;DHT22;1259;48.306;14.374;2022-08-21T07:05:44;16.10;99.90
2497;DHT22;1259;48.306;14.374;2022-08-21T07:08:12;16.10;99.90
2497;DHT22;1259;48.306;14.374;2022-08-21T07:10:39;16.10;99.90
2497;DHT22;1259;48.306;14.374;2022-08-21T07:13:06;16.10;99.90
2497;DHT22;1259;48.306;14.374;2022-08-21T07:15:33;16.10;99.90
2497;DHT22;1259;48.306;14.374;2022-08-21T07:18:00;16.10;99.90
2497;DHT22;1259;48.306;14.374;2022-08-21T07:20:29;16.10;99.90
2497;DHT22;1259;48.306;14.374;2022-08-21T07:22:59;16.10;99.90
2497;DHT22;1259;48.306;14.374;2022-08-21T07:25:29;16.10;99.90
2497;DHT22;1259;48.306;14.374;2022-08-21T07:27:56;16.10;99.90
2497;DHT22;1259;48.306;14.374;2022-08-21T07:30:24;16.10;99.90
2497;DHT22;1259;48.306;14.374;2022-08-21T07:32:53;16.20;99.90
2497;DHT22;1259;48.306;14.374;2022-08-21T07:35:21;16.20;99.90
2497;DHT22;1259;48.306;14.374;2022-08-21T07:37:48;16.20;99.90
2497;DHT22;1259;48.306;14.374;2022-08-21T07:40:16;16.20;99.90
2497;DHT22;1259;48.306;14.374;2022-08-21T07:42:47;16.20;99.90
2497;DHT22;1259;48.306;14.374;2022-08-21T07:45:15;16.30;99.90
2497;DHT22;1259;48.306;14.374;2022-08-21T07:47:42;16.30;99.90
2497;DHT22;1259;48.306;14.374;2022-08-21T07:50:12;16.30;99.90
2497;DHT22;1259;48.306;14.374;2022-08-21T07:52:40;16.40;99.90
2497;DHT22;1259;48.306;14.374;2022-08-21T07:55:08;16.30;99.90
2497;DHT22;1259;48.306;14.374;2022-08-21T07:57:36;16.40;99.90
2497;DHT22;1259;48.306;14.374;2022-08-21T08:00:07;16.50;99.90
2497;DHT22;1259;48.306;14.374;2022-08-21T08:02:35;16.50;99.90
2497;DHT22;1259;48.306;14.374;2022-08-21T08:05:04;16.50;99.90
2497;DHT22;1259;48.306;14.374;2022-08-21T08:07:31;16.60;99.90
2497;DHT22;1259;48.306;14.374;2022-08-21T08:09:58;16.60;99.90
2497;DHT22;1259;48.306;14.374;2022-08-21T08:12:25;16.60;99.90
2497;DHT22;1259;48.306;14.374;2022-08-21T08:14:55;16.60;99.90
2497;DHT22;1259;48.306;14.374;2022-08-21T08:17:23;16.60;99.90
2497;DHT22;1259;48.306;14.374;2022-08-21T08:19:50;16.60;99.90
2497;DHT22;1259;48.306;14.374;2022-08-21T08:22:19;16.60;99.90
2497;DHT22;1259;48.306;14.374;2022-08-21T08:24:47;16.60;99.90
2497;DHT22;1259;48.306;14.374;2022-08-21T08:27:15;16.70;99.90
2497;DHT22;1259;48.306;14.374;2022-08-21T08:29:42;16.70;99.90
2497;DHT22;1259;48.306;14.374;2022-08-21T08:32:09;16.70;99.90
2497;DHT22;1259;48.306;14.374;2022-08-21T08:34:38;16.70;99.90
2497;DHT22;1259;48.306;14.374;2022-08-21T08:37:09;16.70;99.90
2497;DHT22;1259;48.306;14.374;2022-08-21T08:39:36;16.80;99.90
2497;DHT22;1259;48.306;14.374;2022-08-21T08:42:06;16.70;99.90
2497;DHT22;1259;48.306;14.374;2022-08-21T08:44:35;16.70;99.90
2497;DHT22;1259;48.306;14.374;2022-08-21T08:47:03;16.80;99.90
2497;DHT22;1259;48.306;14.374;2022-08-21T08:49:34;16.90;99.90
2497;DHT22;1259;48.306;14.374;2022-08-21T08:52:10;16.90;99.90
2497;DHT22;1259;48.306;14.374;2022-08-21T08:54:41;16.80;99.90
2497;DHT22;1259;48.306;14.374;2022-08-21T08:57:20;16.80;99.90
2497;DHT22;1259;48.306;14.374;2022-08-21T08:59:50;16.90;99.90
2497;DHT22;1259;48.306;14.374;2022-08-21T09:02:19;16.90;99.90
2497;DHT22;1259;48.306;14.374;2022-08-21T09:04:47;16.90;99.90
2497;DHT22;1259;48.306;14.374;2022-08-21T09:07:25;17.00;99.90
2497;DHT22;1259;48.306;14.374;2022-08-21T09:10:04;17.00;99.90
2497;DHT22;1259;48.306;14.374;2022-08-21T09:12:40;16.90;99.90
2497;DHT22;1259;48.306;14.374;2022-08-21T09:15:19;16.90;99.90
2497;DHT22;1259;48.306;14.374;2022-08-21T09:18:12;17.00;99.90
2497;DHT22;1259;48.306;14.374;2022-08-21T09:20:49;17.10;99.90
2497;DHT22;1259;48.306;14.374;2022-08-21T09:23:29;17.10;99.90
2497;DHT22;1259;48.306;14.374;2022-08-21T09:26:05;17.00;99.90
2497;DHT22;1259;48.306;14.374;2022-08-21T09:28:34;17.00;99.90
2497;DHT22;1259;48.306;14.374;2022-08-21T09:31:06;17.00;99.90
2497;DHT22;1259;48.306;14.374;2022-08-21T09:33:33;17.10;99.90
2497;DHT22;1259;48.306;14.374;2022-08-21T09:36:00;17.10;99.90
2497;DHT22;1259;48.306;14.374;2022-08-21T09:38:31;17.20;99.90
2497;DHT22;1259;48.306;14.374;2022-08-21T09:41:02;17.10;99.90
2497;DHT22;1259;48.306;14.374;2022-08-21T09:43:31;17.10;99.90
2497;DHT22;1259;48.306;14.374;2022-08-21T09:46:05;17.10;99.90
2497;DHT22;1259;48.306;14.374;2022-08-21T09:48:44;17.20;99.90
2497;DHT22;1259;48.306;14.374;2022-08-21T09:51:13;17.10;99.90
2497;DHT22;1259;48.306;14.374;2022-08-21T09:53:46;17.20;99.90
2497;DHT22;1259;48.306;14.374;2022-08-21T09:56:26;17.20;99.90
2497;DHT22;1259;48.306;14.374;2022-08-21T09:59:29;17.10;99.90
2497;DHT22;1259;48.306;14.374;2022-08-21T10:01:59;17.10;99.90
2497;DHT22;1259;48.306;14.374;2022-08-21T10:04:29;17.20;99.90
2497;DHT22;1259;48.306;14.374;2022-08-21T10:07:07;17.30;99.90
2497;DHT22;1259;48.306;14.374;2022-08-21T10:09:36;17.40;99.90
2497;DHT22;1259;48.306;14.374;2022-08-21T10:12:13;17.40;99.90
2497;DHT22;1259;48.306;14.374;2022-08-21T10:14:49;17.30;99.90
2497;DHT22;1259;48.306;14.374;2022-08-21T10:17:24;17.30;99.90
2497;DHT22;1259;48.306;14.374;2022-08-21T10:19:59;17.20;99.90
2497;DHT22;1259;48.306;14.374;2022-08-21T10:22:34;17.20;99.90
2497;DHT22;1259;48.306;14.374;2022-08-21T10:25:14;17.20;99.90
2497;DHT22;1259;48.306;14.374;2022-08-21T10:27:54;17.30;99.90
2497;DHT22;1259;48.306;14.374;2022-08-21T10:30:33;17.40;99.90
2497;DHT22;1259;48.306;14.374;2022-08-21T10:33:12;17.60;99.90
2497;DHT22;1259;48.306;14.374;2022-08-21T10:35:50;17.80;99.90
2497;DHT22;1259;48.306;14.374;2022-08-21T10:38:42;17.80;99.90
2497;DHT22;1259;48.306;14.374;2022-08-21T10:41:19;17.80;99.90
2497;DHT22;1259;48.306;14.374;2022-08-21T10:43:58;17.70;99.90
2497;DHT22;1259;48.306;14.374;2022-08-21T10:46:39;17.80;99.90
2497;DHT22;1259;48.306;14.374;2022-08-21T10:49:16;17.80;99.90
2497;DHT22;1259;48.306;14.374;2022-08-21T10:51:49;17.90;99.90
2497;DHT22;1259;48.306;14.374;2022-08-21T10:54:27;17.90;99.90
2497;DHT22;1259;48.306;14.374;2022-08-21T10:57:05;17.90;99.90
2497;DHT22;1259;48.306;14.374;2022-08-21T10:59:39;18.00;99.90
2497;DHT22;1259;48.306;14.374;2022-08-21T11:02:15;18.20;99.90
2497;DHT22;1259;48.306;14.374;2022-08-21T11:04:51;18.20;99.90
2497;DHT22;1259;48.306;14.374;2022-08-21T11:07:21;18.30;99.90
2497;DHT22;1259;48.306;14.374;2022-08-21T11:09:54;18.60;99.90
2497;DHT22;1259;48.306;14.374;2022-08-21T11:12:27;18.80;99.90
2497;DHT22;1259;48.306;14.374;2022-08-21T11:15:00;18.70;99.90
2497;DHT22;1259;48.306;14.374;2022-08-21T11:17:34;18.80;99.90
2497;DHT22;1259;48.306;14.374;2022-08-21T11:20:07;18.60;99.90
2497;DHT22;1259;48.306;14.374;2022-08-21T11:22:39;18.60;99.90
2497;DHT22;1259;48.306;14.374;2022-08-21T11:25:14;18.80;99.90
2497;DHT22;1259;48.306;14.374;2022-08-21T11:27:49;18.90;99.90
2497;DHT22;1259;48.306;14.374;2022-08-21T11:30:17;19.00;99.90
2497;DHT22;1259;48.306;14.374;2022-08-21T11:32:57;19.10;99.90
2497;DHT22;1259;48.306;14.374;2022-08-21T11:35:34;19.20;99.90
2497;DHT22;1259;48.306;14.374;2022-08-21T11:38:28;19.30;99.90
2497;DHT22;1259;48.306;14.374;2022-08-21T11:41:13;19.30;99.90
2497;DHT22;1259;48.306;14.374;2022-08-21T11:43:47;19.40;99.90
2497;DHT22;1259;48.306;14.374;2022-08-21T11:46:28;19.30;99.90
2497;DHT22;1259;48.306;14.374;2022-08-21T11:49:06;19.20;99.90
2497;DHT22;1259;48.306;14.374;2022-08-21T11:51:39;19.20;99.90
2497;DHT22;1259;48.306;14.374;2022-08-21T11:54:16;19.30;99.90
2497;DHT22;1259;48.306;14.374;2022-08-21T11:56:48;19.50;99.90
2497;DHT22;1259;48.306;14.374;2022-08-21T11:59:22;19.80;99.90
2497;DHT22;1259;48.306;14.374;2022-08-21T12:01:50;19.70;99.90
2497;DHT22;1259;48.306;14.374;2022-08-21T12:04:29;19.80;99.90
2497;DHT22;1259;48.306;14.374;2022-08-21T12:07:08;20.10;99.90
2497;DHT22;1259;48.306;14.374;2022-08-21T12:09:36;19.90;99.90
2497;DHT22;1259;48.306;14.374;2022-08-21T12:12:06;20.00;99.90
2497;DHT22;1259;48.306;14.374;2022-08-21T12:14:40;19.90;99.90
2497;DHT22;1259;48.306;14.374;2022-08-21T12:17:09;19.80;99.90
2497;DHT22;1259;48.306;14.374;2022-08-21T12:19:44;20.10;99.90
2497;DHT22;1259;48.306;14.374;2022-08-21T12:22:13;20.00;99.90
2497;DHT22;1259;48.306;14.374;2022-08-21T12:24:43;20.20;99.90
2497;DHT22;1259;48.306;14.374;2022-08-21T12:27:20;20.20;99.90
2497;DHT22;1259;48.306;14.374;2022-08-21T12:29:55;20.30;99.90
2497;DHT22;1259;48.306;14.374;2022-08-21T12:32:25;20.40;99.90
2497;DHT22;1259;48.306;14.374;2022-08-21T12:34:56;20.40;99.90
2497;DHT22;1259;48.306;14.374;2022-08-21T12:37:38;20.50;99.90
2497;DHT22;1259;48.306;14.374;2022-08-21T12:40:13;20.50;99.90
2497;DHT22;1259;48.306;14.374;2022-08-21T12:42:47;20.50;99.90
2497;DHT22;1259;48.306;14.374;2022-08-21T12:45:22;20.30;99.90
2497;DHT22;1259;48.306;14.374;2022-08-21T12:47:56;20.20;99.90
2497;DHT22;1259;48.306;14.374;2022-08-21T12:50:35;20.30;99.90
2497;DHT22;1259;48.306;14.374;2022-08-21T12:53:07;20.50;99.90
2497;DHT22;1259;48.306;14.374;2022-08-21T12:55:34;20.30;99.90
2497;DHT22;1259;48.306;14.374;2022-08-21T12:58:01;20.40;99.90
2497;DHT22;1259;48.306;14.374;2022-08-21T13:00:32;20.20;99.90
2497;DHT22;1259;48.306;14.374;2022-08-21T13:03:00;20.10;99.90
2497;DHT22;1259;48.306;14.374;2022-08-21T13:05:33;20.10;99.90
2497;DHT22;1259;48.306;14.374;2022-08-21T13:08:04;20.20;99.90
2497;DHT22;1259;48.306;14.374;2022-08-21T13:10:33;20.00;99.90
2497;DHT22;1259;48.306;14.374;2022-08-21T13:13:04;20.20;99.90
2497;DHT22;1259;48.306;14.374;2022-08-21T13:15:35;20.30;99.90
2497;DHT22;1259;48.306;14.374;2022-08-21T13:18:04;20.20;99.90
2497;DHT22;1259;48.306;14.374;2022-08-21T13:20:33;20.30;99.90
2497;DHT22;1259;48.306;14.374;2022-08-21T13:23:01;20.40;99.90
2497;DHT22;1259;48.306;14.374;2022-08-21T13:25:29;20.50;99.90
2497;DHT22;1259;48.306;14.374;2022-08-21T13:27:59;20.40;99.90
2497;DHT22;1259;48.306;14.374;2022-08-21T13:30:26;20.30;99.90
2497;DHT22;1259;48.306;14.374;2022-08-21T13:32:58;20.20;99.90
2497;DHT22;1259;48.306;14.374;2022-08-21T13:35:27;20.20;99.90
2497;DHT22;1259;48.306;14.374;2022-08-21T13:37:55;20.10;99.90
2497;DHT22;1259;48.306;14.374;2022-08-21T13:40:25;19.70;99.90
2497;DHT22;1259;48.306;14.374;2022-08-21T13:42:52;19.40;99.90
2497;DHT22;1259;48.306;14.374;2022-08-21T13:45:24;19.30;99.90
2497;DHT22;1259;48.306;14.374;2022-08-21T13:47:53;19.30;99.90
2497;DHT22;1259;48.306;14.374;2022-08-21T13:50:24;19.30;99.90
2497;DHT22;1259;48.306;14.374;2022-08-21T13:52:58;19.40;99.90
2497;DHT22;1259;48.306;14.374;2022-08-21T13:55:34;19.40;99.90
2497;DHT22;1259;48.306;14.374;2022-08-21T13:58:03;19.20;99.90
2497;DHT22;1259;48.306;14.374;2022-08-21T14:00:32;19.10;99.90
2497;DHT22;1259;48.306;14.374;2022-08-21T14:03:04;19.20;99.90
2497;DHT22;1259;48.306;14.374;2022-08-21T14:05:38;19.10;99.90
2497;DHT22;1259;48.306;14.374;2022-08-21T14:08:12;19.20;99.90
2497;DHT22;1259;48.306;14.374;2022-08-21T14:10:42;19.30;99.90
2497;DHT22;1259;48.306;14.374;2022-08-21T14:16:16;19.30;99.90
2497;DHT22;1259;48.306;14.374;2022-08-21T14:18:51;19.40;99.90
2497;DHT22;1259;48.306;14.374;2022-08-21T14:21:31;19.40;99.90
2497;DHT22;1259;48.306;14.374;2022-08-21T14:24:01;19.40;99.90
2497;DHT22;1259;48.306;14.374;2022-08-21T14:26:28;19.20;99.90
2497;DHT22;1259;48.306;14.374;2022-08-21T14:28:59;19.20;99.90
2497;DHT22;1259;48.306;14.374;2022-08-21T14:31:29;19.20;99.90
2497;DHT22;1259;48.306;14.374;2022-08-21T14:33:58;19.20;99.90
2497;DHT22;1259;48.306;14.374;2022-08-21T14:36:25;19.20;99.90
2497;DHT22;1259;48.306;14.374;2022-08-21T14:38:54;19.20;99.90
2497;DHT22;1259;48.306;14.374;2022-08-21T14:41:24;19.10;99.90
2497;DHT22;1259;48.306;14.374;2022-08-21T14:43:53;19.20;99.90
2497;DHT22;1259;48.306;14.374;2022-08-21T14:46:22;19.30;99.90
2497;DHT22;1259;48.306;14.374;2022-08-21T14:48:49;19.30;99.90
2497;DHT22;1259;48.306;14.374;2022-08-21T14:51:19;19.30;99.90
2497;DHT22;1259;48.306;14.374;2022-08-21T14:53:46;19.50;99.90
2497;DHT22;1259;48.306;14.374;2022-08-21T14:56:15;19.60;99.90
2497;DHT22;1259;48.306;14.374;2022-08-21T14:58:45;19.70;99.90
2497;DHT22;1259;48.306;14.374;2022-08-21T15:01:13;19.60;99.90
2497;DHT22;1259;48.306;14.374;2022-08-21T15:03:41;19.90;99.90
2497;DHT22;1259;48.306;14.374;2022-08-21T15:06:08;19.80;99.90
2497;DHT22;1259;48.306;14.374;2022-08-21T15:08:36;19.80;99.90
2497;DHT22;1259;48.306;14.374;2022-08-21T15:11:04;19.80;99.90
2497;DHT22;1259;48.306;14.374;2022-08-21T15:13:33;19.70;99.90
2497;DHT22;1259;48.306;14.374;2022-08-21T15:16:00;19.70;99.90
2497;DHT22;1259;48.306;14.374;2022-08-21T15:18:29;19.70;99.90
2497;DHT22;1259;48.306;14.374;2022-08-21T15:20:56;19.60;99.90
2497;DHT22;1259;48.306;14.374;2022-08-21T15:23:23;19.70;99.90
2497;DHT22;1259;48.306;14.374;2022-08-21T15:25:50;19.60;99.90
2497;DHT22;1259;48.306;14.374;2022-08-21T15:28:18;19.40;99.90
2497;DHT22;1259;48.306;14.374;2022-08-21T15:30:48;19.40;99.90
2497;DHT22;1259;48.306;14.374;2022-08-21T15:33:15;19.30;99.90
2497;DHT22;1259;48.306;14.374;2022-08-21T15:35:42;19.20;99.90
2497;DHT22;1259;48.306;14.374;2022-08-21T15:38:09;19.20;99.90
2497;DHT22;1259;48.306;14.374;2022-08-21T15:40:36;19.00;99.90
2497;DHT22;1259;48.306;14.374;2022-08-21T15:43:05;19.00;99.90
2497;DHT22;1259;48.306;14.374;2022-08-21T15:45:32;18.80;99.90
2497;DHT22;1259;48.306;14.374;2022-08-21T15:48:01;18.80;99.90
2497;DHT22;1259;48.306;14.374;2022-08-21T15:50:31;18.70;99.90
2497;DHT22;1259;48.306;14.374;2022-08-21T15:52:58;18.60;99.90
2497;DHT22;1259;48.306;14.374;2022-08-21T15:55:25;18.50;99.90
2497;DHT22;1259;48.306;14.374;2022-08-21T15:57:52;18.60;99.90
2497;DHT22;1259;48.306;14.374;2022-08-21T16:00:22;18.50;99.90
2497;DHT22;1259;48.306;14.374;2022-08-21T16:02:52;18.50;99.90
2497;DHT22;1259;48.306;14.374;2022-08-21T16:05:22;18.40;99.90